Time;durP1;ratioP1;P1;durP2;ratioP2;P2;SDS_P1;SDS_P2;PMS_P1;PMS_P2;Temp;Humidity;BMP_temperature;BMP_pressure;BME280_temperature;BME280_humidity;BME280_pressure;Samples;Min_cycle;Max_cycle;Signal;HPM_P1;HPM_P2
2024/02/06 00:00:14;;;;;;;3.22;3.03;;;17.30;67.40;;;;;;5016998;28;20125;-80
2024/02/06 00:02:40;;;;;;;3.42;3.03;;;17.30;67.50;;;;;;4985216;28;20062;-80
2024/02/06 00:05:06;;;;;;;3.33;3.13;;;17.20;67.40;;;;;;5015861;28;20722;-79
2024/02/06 00:07:31;;;;;;;4.00;3.13;;;17.20;67.40;;;;;;5007759;28;20157;-79
2024/02/06 00:09:57;;;;;;;3.10;2.90;;;17.20;67.50;;;;;;5018215;28;20160;-78
2024/02/06 00:12:22;;;;;;;3.00;2.80;;;17.20;67.50;;;;;;5017941;28;20242;-78
2024/02/06 00:14:48;;;;;;;3.15;2.95;;;17.20;67.60;;;;;;5003236;28;20022;-78
2024/02/06 00:17:14;;;;;;;3.45;3.15;;;17.20;67.60;;;;;;4999616;28;20700;-78
2024/02/06 00:19:39;;;;;;;2.85;2.65;;;17.20;67.70;;;;;;5013407;28;20135;-78
2024/02/06 00:22:05;;;;;;;3.10;2.80;;;17.20;67.70;;;;;;4998090;28;20107;-78
2024/02/06 00:24:30;;;;;;;2.90;2.70;;;17.20;67.70;;;;;;5013755;28;20034;-78
2024/02/06 00:26:56;;;;;;;2.97;2.78;;;17.20;67.90;;;;;;5016483;28;20034;-78
2024/02/06 00:29:22;;;;;;;3.10;2.90;;;17.20;67.80;;;;;;4982280;28;20051;-78
2024/02/06 00:31:47;;;;;;;2.90;2.70;;;17.10;67.80;;;;;;4969434;28;20117;-77
2024/02/06 00:34:13;;;;;;;2.63;2.42;;;17.10;67.80;;;;;;4985686;28;20034;-77
2024/02/06 00:36:38;;;;;;;2.80;2.60;;;17.10;68.00;;;;;;4996422;28;20030;-77
2024/02/06 00:39:04;;;;;;;2.78;2.58;;;17.10;68.00;;;;;;5013327;28;20524;-77
2024/02/06 00:41:30;;;;;;;2.63;2.42;;;17.10;68.10;;;;;;5001004;28;20654;-77
2024/02/06 00:43:55;;;;;;;2.83;2.45;;;17.00;68.10;;;;;;5002635;28;20050;-78
2024/02/06 00:46:21;;;;;;;2.38;2.17;;;17.00;68.10;;;;;;4986025;28;20041;-77
2024/02/06 00:48:47;;;;;;;2.33;2.15;;;17.00;68.20;;;;;;4983531;28;20624;-78
2024/02/06 00:51:13;;;;;;;2.40;2.20;;;17.00;68.20;;;;;;5004334;28;20045;-78
2024/02/06 00:53:38;;;;;;;2.25;2.15;;;17.00;68.30;;;;;;5014892;28;20065;-78
2024/02/06 00:56:05;;;;;;;3.78;2.58;;;16.90;68.30;;;;;;4999217;28;20129;-78
2024/02/06 00:58:31;;;;;;;2.45;2.25;;;17.00;68.50;;;;;;4994320;28;20065;-78
2024/02/06 01:00:57;;;;;;;2.45;2.28;;;16.90;68.50;;;;;;5003254;28;20038;-78
2024/02/06 01:03:23;;;;;;;2.30;2.10;;;16.90;68.50;;;;;;5000982;28;20065;-78
2024/02/06 01:05:48;;;;;;;2.38;2.20;;;16.90;68.60;;;;;;4999416;28;20053;-77
2024/02/06 01:08:14;;;;;;;2.47;2.28;;;16.90;68.60;;;;;;5001740;28;20129;-77
2024/02/06 01:10:39;;;;;;;2.33;2.15;;;16.90;68.70;;;;;;5003137;28;20062;-77
2024/02/06 01:13:05;;;;;;;2.47;2.00;;;16.80;68.70;;;;;;5002604;28;20069;-77
2024/02/06 01:15:32;;;;;;;2.40;2.20;;;16.80;68.80;;;;;;5015420;28;20038;-77
2024/02/06 01:17:57;;;;;;;2.13;1.92;;;16.80;68.80;;;;;;5002338;28;20042;-77
2024/02/06 01:20:23;;;;;;;2.15;2.05;;;16.80;68.90;;;;;;5005886;28;20481;-77
2024/02/06 01:22:49;;;;;;;2.13;2.03;;;16.80;69.00;;;;;;5021285;28;20050;-78
2024/02/06 01:25:15;;;;;;;1.95;1.85;;;16.70;69.00;;;;;;4989894;28;20050;-78
2024/02/06 01:27:41;;;;;;;2.40;2.20;;;16.70;69.00;;;;;;5000005;28;20056;-78
2024/02/06 01:30:08;;;;;;;2.30;2.20;;;16.70;69.10;;;;;;5004906;28;20046;-78
2024/02/06 01:32:33;;;;;;;1.90;1.80;;;16.70;69.20;;;;;;5018364;28;20038;-78
2024/02/06 01:34:59;;;;;;;1.90;1.80;;;16.70;69.30;;;;;;5021627;28;20045;-78
2024/02/06 01:37:24;;;;;;;2.17;2.08;;;16.60;69.20;;;;;;5002909;28;20042;-78
2024/02/06 01:39:50;;;;;;;1.80;1.70;;;16.60;69.30;;;;;;5003828;28;20518;-78
2024/02/06 01:42:16;;;;;;;2.20;2.00;;;16.60;69.30;;;;;;5006238;28;20038;-78
2024/02/06 01:44:41;;;;;;;1.80;1.70;;;16.60;69.40;;;;;;5022072;28;20411;-78
2024/02/06 01:47:07;;;;;;;2.05;1.63;;;16.60;69.50;;;;;;4987996;28;20133;-78
2024/02/06 01:49:33;;;;;;;1.83;1.73;;;16.60;69.50;;;;;;5031676;28;20125;-78
2024/02/06 01:51:59;;;;;;;1.92;1.83;;;16.60;69.50;;;;;;5003905;28;20594;-78
2024/02/06 01:54:24;;;;;;;1.55;1.45;;;16.50;69.60;;;;;;5020120;28;20054;-78
2024/02/06 01:56:50;;;;;;;1.45;1.35;;;16.50;69.60;;;;;;4985482;28;20046;-78
2024/02/06 01:59:15;;;;;;;2.05;1.95;;;16.50;69.60;;;;;;5005739;28;20049;-78
2024/02/06 02:01:41;;;;;;;1.80;1.70;;;16.50;69.70;;;;;;4994513;28;20042;-78
2024/02/06 02:04:07;;;;;;;1.48;1.38;;;16.50;69.80;;;;;;5003741;28;20108;-78
2024/02/06 02:06:32;;;;;;;1.98;1.88;;;16.50;70.60;;;;;;5000219;28;20162;-79
2024/02/06 02:08:58;;;;;;;1.65;1.55;;;16.40;69.70;;;;;;5000153;28;20504;-78
2024/02/06 02:11:23;;;;;;;1.65;1.50;;;16.40;69.80;;;;;;5016635;28;20079;-77
2024/02/06 02:13:50;;;;;;;1.35;1.27;;;16.40;69.80;;;;;;4983879;28;20042;-78
2024/02/06 02:16:19;;;;;;;1.35;1.25;;;16.40;69.90;;;;;;4988395;28;20108;-78
2024/02/06 02:18:44;;;;;;;1.58;1.48;;;16.40;69.90;;;;;;5002389;28;20046;-78
2024/02/06 02:21:10;;;;;;;1.80;1.70;;;16.40;70.00;;;;;;5005411;28;20040;-78
2024/02/06 02:23:39;;;;;;;1.58;1.48;;;16.40;70.00;;;;;;5000781;28;20045;-78
2024/02/06 02:26:08;;;;;;;1.83;1.73;;;16.40;70.80;;;;;;4999521;28;20042;-77
2024/02/06 02:28:37;;;;;;;1.58;1.48;;;16.40;70.10;;;;;;4999141;28;20053;-78
2024/02/06 02:31:06;;;;;;;1.55;1.40;;;16.30;70.00;;;;;;4997419;28;20104;-78
2024/02/06 02:33:32;;;;;;;1.65;1.52;;;16.40;70.20;;;;;;5000097;28;20062;-78
2024/02/06 02:35:58;;;;;;;1.30;1.20;;;16.30;70.10;;;;;;5002855;28;20065;-78
2024/02/06 02:38:24;;;;;;;2.40;1.67;;;16.40;70.10;;;;;;5002564;28;20052;-78
2024/02/06 02:40:50;;;;;;;1.48;1.38;;;16.30;70.10;;;;;;5004292;28;20145;-77
2024/02/06 02:43:16;;;;;;;1.48;1.38;;;16.30;70.10;;;;;;5003587;28;20137;-77
2024/02/06 02:45:42;;;;;;;1.73;1.63;;;16.30;70.20;;;;;;5000889;28;20578;-78
2024/02/06 02:48:07;;;;;;;1.60;1.50;;;16.30;70.20;;;;;;5019167;28;20034;-79
2024/02/06 02:50:33;;;;;;;1.17;1.08;;;16.30;70.30;;;;;;5014836;28;20038;-79
2024/02/06 02:52:59;;;;;;;1.30;1.20;;;16.30;70.40;;;;;;5017264;28;20096;-79
2024/02/06 02:55:24;;;;;;;1.70;1.60;;;16.30;70.40;;;;;;5001598;28;20037;-79
2024/02/06 02:57:50;;;;;;;1.90;1.48;;;16.30;70.40;;;;;;5000971;28;20480;-79
2024/02/06 03:00:16;;;;;;;1.40;1.30;;;16.20;70.50;;;;;;5003475;28;20038;-79
2024/02/06 03:02:41;;;;;;;1.45;1.35;;;16.20;70.40;;;;;;5002073;28;20056;-79
2024/02/06 03:05:08;;;;;;;1.33;1.23;;;16.20;70.50;;;;;;5003153;28;20513;-77
2024/02/06 03:07:34;;;;;;;2.00;1.90;;;16.20;70.50;;;;;;5003132;28;20485;-78
2024/02/06 03:10:00;;;;;;;1.25;1.15;;;16.20;70.60;;;;;;5000738;28;20026;-77
2024/02/06 03:12:31;;;;;;;1.50;1.40;;;16.20;70.60;;;;;;5015203;28;20454;-77
2024/02/06 03:15:00;;;;;;;1.40;1.30;;;16.20;70.60;;;;;;5003356;28;20088;-79
2024/02/06 03:17:26;;;;;;;1.40;1.30;;;16.20;70.60;;;;;;5003260;28;20128;-79
2024/02/06 03:19:52;;;;;;;1.35;1.25;;;16.20;70.70;;;;;;5006284;28;20196;-79
2024/02/06 03:22:20;;;;;;;1.50;1.20;;;16.20;71.50;;;;;;4998426;28;20542;-79
2024/02/06 03:24:45;;;;;;;1.40;1.30;;;16.20;70.50;;;;;;5014647;28;20115;-79
2024/02/06 03:27:11;;;;;;;1.48;1.20;;;16.20;70.70;;;;;;4999382;28;20164;-79
2024/02/06 03:29:36;;;;;;;1.10;1.10;;;16.20;70.60;;;;;;5003734;28;20045;-79
2024/02/06 03:32:03;;;;;;;1.70;1.60;;;16.20;70.70;;;;;;5018831;28;20401;-79
2024/02/06 03:34:29;;;;;;;1.30;1.20;;;16.20;70.50;;;;;;5010208;28;20048;-79
2024/02/06 03:36:55;;;;;;;1.30;1.10;;;16.20;70.50;;;;;;5010790;28;20046;-78
2024/02/06 03:39:21;;;;;;;1.83;1.30;;;16.20;70.70;;;;;;5003075;28;20061;-78
2024/02/06 03:41:47;;;;;;;1.50;1.40;;;16.10;70.40;;;;;;4985094;28;20041;-79
2024/02/06 03:44:13;;;;;;;1.10;1.00;;;16.10;70.50;;;;;;5011553;28;20042;-79
2024/02/06 03:46:40;;;;;;;1.25;1.15;;;16.10;70.30;;;;;;5001616;28;20035;-79
2024/02/06 03:49:06;;;;;;;1.20;1.10;;;16.10;70.40;;;;;;5001798;28;20981;-78
2024/02/06 03:51:32;;;;;;;1.42;1.20;;;16.10;70.50;;;;;;5002249;28;20412;-78
2024/02/06 03:53:57;;;;;;;1.40;1.30;;;16.10;71.20;;;;;;5013722;28;20051;-79
2024/02/06 03:56:23;;;;;;;1.30;1.15;;;16.10;70.60;;;;;;4986534;28;20084;-79
2024/02/06 03:58:48;;;;;;;1.55;1.45;;;16.10;70.60;;;;;;5002110;28;20041;-79
2024/02/06 04:01:14;;;;;;;1.63;1.48;;;16.10;70.70;;;;;;4998839;28;20053;-79
2024/02/06 04:03:39;;;;;;;1.30;1.20;;;16.10;70.70;;;;;;5016338;28;20561;-79
2024/02/06 04:06:06;;;;;;;1.40;1.30;;;16.10;70.60;;;;;;4998525;28;20310;-78
2024/02/06 04:08:32;;;;;;;1.25;1.15;;;16.10;70.90;;;;;;5016797;28;20087;-79
2024/02/06 04:10:57;;;;;;;1.30;1.20;;;16.10;70.90;;;;;;5014499;28;20124;-78
2024/02/06 04:13:23;;;;;;;1.20;1.10;;;16.10;70.60;;;;;;4997989;28;20423;-79
2024/02/06 04:15:48;;;;;;;0.90;0.90;;;16.00;70.60;;;;;;4997767;28;20050;-79
2024/02/06 04:18:14;;;;;;;1.20;1.10;;;16.10;70.60;;;;;;5003706;28;20427;-79
2024/02/06 04:20:40;;;;;;;1.05;0.98;;;16.10;70.70;;;;;;5015979;28;20085;-79
2024/02/06 04:23:06;;;;;;;1.27;1.17;;;16.10;70.70;;;;;;5003560;28;20046;-78
2024/02/06 04:25:31;;;;;;;1.17;1.00;;;16.10;70.70;;;;;;4986689;28;20037;-78
2024/02/06 04:27:57;;;;;;;1.30;1.20;;;16.10;70.70;;;;;;5012910;28;20041;-79
2024/02/06 04:30:23;;;;;;;1.00;1.00;;;16.00;70.90;;;;;;5016213;28;20069;-79
2024/02/06 04:32:51;;;;;;;1.75;1.00;;;16.00;71.00;;;;;;4997648;28;20512;-79
2024/02/06 04:35:17;;;;;;;1.05;1.00;;;16.10;71.10;;;;;;5001881;28;20046;-78
2024/02/06 04:37:44;;;;;;;1.20;1.20;;;16.10;71.20;;;;;;5001748;28;20053;-78
2024/02/06 04:40:10;;;;;;;1.23;1.00;;;16.10;71.40;;;;;;4999474;28;20204;-78
2024/02/06 04:42:36;;;;;;;1.23;1.13;;;16.10;71.60;;;;;;5001062;28;20760;-80
2024/02/06 04:45:02;;;;;;;1.50;1.40;;;16.10;71.80;;;;;;5014867;28;20508;-79
2024/02/06 04:47:28;;;;;;;1.20;1.10;;;16.10;72.00;;;;;;5002697;28;20042;-78
2024/02/06 04:49:55;;;;;;;1.30;1.20;;;16.10;72.20;;;;;;5001676;28;20042;-78
2024/02/06 04:52:21;;;;;;;0.80;0.80;;;16.10;72.40;;;;;;5006908;28;20120;-78
2024/02/06 04:54:46;;;;;;;0.90;0.90;;;16.10;72.40;;;;;;5016551;28;20069;-79
2024/02/06 04:57:12;;;;;;;1.13;1.10;;;16.10;72.50;;;;;;5005697;28;20041;-79
2024/02/06 04:59:37;;;;;;;1.02;1.00;;;16.10;72.50;;;;;;5020814;28;20643;-79
2024/02/06 05:02:03;;;;;;;0.68;0.68;;;16.00;72.40;;;;;;4997583;28;20065;-78
2024/02/06 05:04:29;;;;;;;0.93;0.82;;;16.00;72.50;;;;;;5006748;28;20042;-78
2024/02/06 05:06:54;;;;;;;1.33;1.15;;;16.10;72.50;;;;;;4973428;28;20508;-80
2024/02/06 05:09:20;;;;;;;1.30;1.05;;;16.10;72.30;;;;;;5022223;28;20456;-80
2024/02/06 05:11:46;;;;;;;1.30;1.02;;;16.10;72.20;;;;;;5008411;28;20105;-79
2024/02/06 05:14:11;;;;;;;0.88;0.88;;;16.00;72.20;;;;;;5003991;28;20645;-79
2024/02/06 05:16:37;;;;;;;2.40;1.25;;;16.00;72.10;;;;;;5022881;28;20034;-79
2024/02/06 05:19:02;;;;;;;1.15;1.15;;;16.00;72.40;;;;;;5004497;28;20046;-79
2024/02/06 05:21:28;;;;;;;1.20;1.10;;;16.00;72.80;;;;;;5017230;28;20069;-79
2024/02/06 05:23:53;;;;;;;0.80;0.80;;;16.00;72.10;;;;;;5003821;28;20129;-79
2024/02/06 05:26:20;;;;;;;0.95;0.80;;;16.00;72.80;;;;;;5002312;28;20042;-79
2024/02/06 05:28:46;;;;;;;0.73;0.73;;;16.00;72.00;;;;;;5006507;28;20040;-79
2024/02/06 05:31:11;;;;;;;2.33;0.98;;;16.00;72.00;;;;;;5002726;28;20034;-79
2024/02/06 05:33:37;;;;;;;0.70;0.70;;;16.00;71.90;;;;;;5000777;28;20487;-79
2024/02/06 05:36:03;;;;;;;0.90;0.90;;;16.00;72.70;;;;;;4986691;28;20041;-80
2024/02/06 05:38:28;;;;;;;1.00;1.00;;;16.00;71.80;;;;;;4989796;28;20057;-80
2024/02/06 05:40:54;;;;;;;1.10;0.70;;;16.00;71.70;;;;;;5004035;28;20437;-80
2024/02/06 05:43:19;;;;;;;0.90;0.90;;;16.00;71.80;;;;;;5004071;28;20053;-79
2024/02/06 05:45:45;;;;;;;0.80;0.80;;;16.00;71.70;;;;;;4997912;28;20504;-79
2024/02/06 05:48:10;;;;;;;0.80;0.80;;;16.00;71.70;;;;;;4999550;28;20066;-79
2024/02/06 05:50:36;;;;;;;0.80;0.80;;;16.00;71.70;;;;;;4988968;28;20475;-80
2024/02/06 05:53:02;;;;;;;1.52;0.88;;;16.00;71.70;;;;;;4988800;28;20103;-80
2024/02/06 05:55:28;;;;;;;1.23;1.13;;;15.90;71.60;;;;;;5006219;28;20523;-79
2024/02/06 05:57:54;;;;;;;1.83;0.90;;;15.90;71.50;;;;;;4999487;28;20042;-78
2024/02/06 06:00:20;;;;;;;1.60;0.80;;;15.90;71.50;;;;;;5018492;28;20077;-79
2024/02/06 06:02:45;;;;;;;0.80;0.80;;;15.90;71.50;;;;;;5015867;28;20436;-80
2024/02/06 06:05:11;;;;;;;0.90;0.90;;;15.90;71.50;;;;;;5017719;28;20104;-79
2024/02/06 06:07:37;;;;;;;0.80;0.80;;;15.90;71.50;;;;;;5021347;28;20045;-76
2024/02/06 06:10:03;;;;;;;0.70;0.70;;;15.90;71.40;;;;;;5000981;28;20128;-79
2024/02/06 06:12:29;;;;;;;0.90;0.65;;;15.90;71.50;;;;;;5004753;28;20052;-78
2024/02/06 06:14:54;;;;;;;0.90;0.80;;;16.00;71.60;;;;;;5017486;28;20431;-79
2024/02/06 06:17:20;;;;;;;0.90;0.82;;;15.90;71.60;;;;;;4986925;28;20066;-79
2024/02/06 06:19:45;;;;;;;0.90;0.90;;;16.00;71.60;;;;;;4991424;28;20045;-79
2024/02/06 06:22:12;;;;;;;0.88;0.80;;;16.00;71.40;;;;;;5016371;28;20420;-79
2024/02/06 06:24:38;;;;;;;0.60;0.60;;;15.90;71.60;;;;;;5012701;28;20048;-80
2024/02/06 06:27:04;;;;;;;0.50;0.50;;;15.90;71.50;;;;;;5002879;28;20038;-80
2024/02/06 06:29:29;;;;;;;0.75;0.75;;;15.90;71.60;;;;;;5003373;28;20053;-80
2024/02/06 06:31:55;;;;;;;0.80;0.80;;;15.90;71.50;;;;;;5016722;28;20076;-79
2024/02/06 06:34:20;;;;;;;0.80;0.80;;;15.90;71.60;;;;;;5017689;28;20121;-78
2024/02/06 06:36:46;;;;;;;1.98;0.95;;;15.90;71.70;;;;;;4986950;28;20034;-80
2024/02/06 06:39:12;;;;;;;0.95;0.88;;;15.90;72.20;;;;;;5015133;28;20069;-83
2024/02/06 06:41:37;;;;;;;1.08;0.77;;;15.90;71.90;;;;;;4979821;28;20046;-82
2024/02/06 06:44:03;;;;;;;1.83;0.85;;;15.90;72.20;;;;;;5005000;28;20116;-83
2024/02/06 06:46:29;;;;;;;1.23;0.75;;;15.90;71.90;;;;;;4993318;28;20511;-83
2024/02/06 06:48:54;;;;;;;1.95;0.80;;;15.90;72.00;;;;;;5012622;28;20418;-82
2024/02/06 06:51:20;;;;;;;0.90;0.80;;;15.90;72.10;;;;;;5002029;28;20049;-83
2024/02/06 06:53:45;;;;;;;1.75;1.05;;;15.90;72.50;;;;;;5014819;28;20476;-83
2024/02/06 06:56:17;;;;;;;0.98;0.80;;;15.90;72.60;;;;;;4648381;28;10000186;-84
2024/02/06 06:58:43;;;;;;;3.13;1.10;;;15.90;72.50;;;;;;4997345;28;20057;-83
2024/02/06 07:01:09;;;;;;;2.90;0.80;;;16.00;73.70;;;;;;4997509;28;20041;-82
2024/02/06 07:03:35;;;;;;;0.80;0.80;;;16.00;73.20;;;;;;4996624;28;20046;-82
2024/02/06 07:06:01;;;;;;;0.80;0.80;;;16.00;73.00;;;;;;4999001;28;20448;-83
2024/02/06 07:08:26;;;;;;;1.20;0.68;;;16.00;73.20;;;;;;4990509;28;20038;-85
2024/02/06 07:10:52;;;;;;;0.70;0.70;;;16.00;73.20;;;;;;4984370;28;20073;-85
2024/02/06 07:13:17;;;;;;;3.22;0.70;;;16.00;73.50;;;;;;5001395;28;20042;-84
2024/02/06 07:15:43;;;;;;;0.70;0.70;;;16.00;73.20;;;;;;5017431;28;20076;-85
2024/02/06 07:18:08;;;;;;;0.75;0.68;;;16.00;73.60;;;;;;4999325;28;20050;-81
2024/02/06 07:20:34;;;;;;;0.75;0.75;;;16.00;73.70;;;;;;5017548;28;20042;-85
2024/02/06 07:23:00;;;;;;;1.60;0.98;;;16.00;74.40;;;;;;5015710;28;20046;-84
2024/02/06 07:25:25;;;;;;;1.13;1.05;;;16.10;74.10;;;;;;5017544;28;20058;-83
2024/02/06 07:27:51;;;;;;;2.40;1.02;;;16.10;74.40;;;;;;4998592;28;20142;-81
2024/02/06 07:30:17;;;;;;;1.60;1.05;;;16.30;74.20;;;;;;5002390;28;20045;-82
2024/02/06 07:32:42;;;;;;;1.15;0.63;;;16.30;73.80;;;;;;4998322;28;20046;-83
2024/02/06 07:35:08;;;;;;;1.40;0.68;;;16.30;73.90;;;;;;5003344;28;20050;-81
2024/02/06 07:37:34;;;;;;;0.88;0.70;;;16.20;74.00;;;;;;5004673;28;20101;-83
2024/02/06 07:39:59;;;;;;;2.15;0.80;;;16.20;73.90;;;;;;5001883;28;20061;-82
2024/02/06 07:42:25;;;;;;;1.00;0.85;;;16.20;73.90;;;;;;5000517;28;20385;-83
2024/02/06 07:44:50;;;;;;;0.80;0.80;;;16.20;74.00;;;;;;5003427;28;20033;-85
2024/02/06 07:47:19;;;;;;;1.13;1.00;;;16.20;74.00;;;;;;5000833;28;20108;-85
2024/02/06 07:49:44;;;;;;;0.75;0.75;;;16.10;73.90;;;;;;5005200;28;20042;-83
2024/02/06 07:52:10;;;;;;;0.60;0.60;;;16.10;73.80;;;;;;5000282;28;20046;-82
2024/02/06 07:54:36;;;;;;;3.00;0.75;;;16.10;73.80;;;;;;5003011;28;20032;-84
2024/02/06 07:57:01;;;;;;;2.42;0.80;;;16.10;73.80;;;;;;4999350;28;20500;-85
2024/02/06 07:59:27;;;;;;;0.98;0.82;;;16.10;74.00;;;;;;4999227;28;20097;-84
2024/02/06 08:01:52;;;;;;;0.70;0.70;;;16.10;73.50;;;;;;5001407;28;20496;-84
2024/02/06 08:04:18;;;;;;;1.40;0.75;;;16.10;73.50;;;;;;5002920;28;20089;-84
2024/02/06 08:06:43;;;;;;;1.00;1.00;;;16.10;73.40;;;;;;5002606;28;20038;-84
2024/02/06 08:09:09;;;;;;;1.88;1.00;;;16.10;73.30;;;;;;5001056;28;20038;-84
2024/02/06 08:11:35;;;;;;;3.13;0.80;;;16.00;73.20;;;;;;5002664;28;20081;-84
2024/02/06 08:14:01;;;;;;;0.70;0.60;;;16.00;73.00;;;;;;4999165;28;20029;-84
2024/02/06 08:16:27;;;;;;;0.75;0.73;;;16.00;72.90;;;;;;5001732;28;20029;-84
2024/02/06 08:18:52;;;;;;;1.50;0.82;;;16.00;72.90;;;;;;5000031;28;20046;-84
2024/02/06 08:21:18;;;;;;;1.92;0.93;;;16.00;73.00;;;;;;5001807;28;20049;-84
2024/02/06 08:23:44;;;;;;;1.77;0.80;;;16.00;72.90;;;;;;5003358;28;20065;-84
2024/02/06 08:26:09;;;;;;;1.75;0.70;;;16.00;72.90;;;;;;4998336;28;20427;-84
2024/02/06 08:28:35;;;;;;;0.50;0.50;;;16.00;72.90;;;;;;5007368;28;20088;-84
2024/02/06 08:31:00;;;;;;;0.85;0.68;;;16.00;72.90;;;;;;5005210;28;20034;-85
2024/02/06 08:33:26;;;;;;;0.75;0.73;;;16.00;73.50;;;;;;5006986;28;20038;-84
2024/02/06 08:35:52;;;;;;;1.38;1.02;;;16.00;72.80;;;;;;5003712;28;20034;-84
2024/02/06 08:38:19;;;;;;;0.65;0.60;;;16.00;73.60;;;;;;5004248;28;20042;-83
2024/02/06 08:40:45;;;;;;;0.70;0.70;;;15.90;72.70;;;;;;5008573;28;20065;-84
2024/02/06 08:43:11;;;;;;;0.85;0.55;;;15.90;72.70;;;;;;5005527;28;20520;-84
2024/02/06 08:45:36;;;;;;;0.98;0.70;;;15.90;72.70;;;;;;5004266;28;20072;-84
2024/02/06 08:48:03;;;;;;;1.13;0.80;;;16.00;72.70;;;;;;5004260;28;20190;-84
2024/02/06 08:50:33;;;;;;;0.70;0.70;;;16.00;73.50;;;;;;5003161;28;20050;-84
2024/02/06 08:52:59;;;;;;;0.75;0.70;;;16.00;72.60;;;;;;5006541;28;20160;-84
2024/02/06 08:55:24;;;;;;;0.75;0.65;;;15.90;72.60;;;;;;5002499;28;20225;-84
2024/02/06 08:57:50;;;;;;;0.50;0.47;;;15.90;72.60;;;;;;5005325;28;20042;-84
2024/02/06 09:00:16;;;;;;;2.28;0.73;;;15.90;73.20;;;;;;5002150;28;20042;-84
2024/02/06 09:02:42;;;;;;;1.05;0.77;;;15.90;72.40;;;;;;5003906;28;20530;-84
2024/02/06 09:05:08;;;;;;;1.08;0.77;;;15.90;72.50;;;;;;5001950;28;20073;-84
2024/02/06 09:07:33;;;;;;;0.57;0.52;;;15.90;72.50;;;;;;5005050;28;20045;-84
2024/02/06 09:09:59;;;;;;;0.77;0.70;;;15.90;73.10;;;;;;5006844;28;20038;-84
2024/02/06 09:12:25;;;;;;;0.68;0.60;;;15.90;72.40;;;;;;5006115;28;20033;-84
2024/02/06 09:14:51;;;;;;;1.02;0.70;;;15.90;72.40;;;;;;5001594;28;20045;-84
2024/02/06 09:17:19;;;;;;;0.82;0.75;;;15.90;72.60;;;;;;5000505;28;20097;-83
2024/02/06 09:19:45;;;;;;;0.68;0.68;;;15.90;72.50;;;;;;5003777;28;20500;-84
2024/02/06 09:22:10;;;;;;;2.22;0.70;;;15.90;72.50;;;;;;5001307;28;20096;-84
2024/02/06 09:24:36;;;;;;;1.25;0.82;;;15.90;72.40;;;;;;5002913;28;20575;-84
2024/02/06 09:27:02;;;;;;;0.50;0.50;;;15.90;72.60;;;;;;5003958;28;20072;-84
2024/02/06 09:29:27;;;;;;;0.98;0.70;;;15.90;72.40;;;;;;5007257;28;20033;-84
2024/02/06 09:31:53;;;;;;;0.90;0.47;;;15.90;72.40;;;;;;5004545;28;20416;-84
2024/02/06 09:34:20;;;;;;;1.42;0.68;;;15.90;72.40;;;;;;5005158;28;20042;-84
2024/02/06 09:36:46;;;;;;;0.68;0.50;;;15.90;72.30;;;;;;5001728;28;20069;-84
2024/02/06 09:39:12;;;;;;;0.93;0.73;;;15.90;72.30;;;;;;5001408;28;20045;-84
2024/02/06 09:41:39;;;;;;;0.50;0.50;;;15.90;73.00;;;;;;5034326;28;20042;-84
2024/02/06 09:44:05;;;;;;;0.70;0.60;;;15.90;72.30;;;;;;5005703;28;20046;-84
2024/02/06 09:46:31;;;;;;;0.70;0.55;;;15.90;72.30;;;;;;4998466;28;20042;-84
2024/02/06 09:48:56;;;;;;;0.55;0.55;;;15.90;72.30;;;;;;5002797;28;20048;-84
2024/02/06 09:51:23;;;;;;;1.23;0.63;;;15.90;72.20;;;;;;5016786;28;20054;-83
2024/02/06 09:53:49;;;;;;;0.65;0.60;;;15.90;72.20;;;;;;5005912;28;20129;-84
2024/02/06 09:56:15;;;;;;;1.20;0.50;;;15.90;72.10;;;;;;5018076;28;20137;-84
2024/02/06 09:58:41;;;;;;;1.58;0.95;;;15.90;72.10;;;;;;5019397;28;20076;-84
2024/02/06 10:01:10;;;;;;;0.60;0.60;;;15.80;72.00;;;;;;4987371;28;20054;-84
2024/02/06 10:03:35;;;;;;;0.75;0.50;;;15.80;72.10;;;;;;5017259;28;20050;-84
2024/02/06 10:06:03;;;;;;;0.82;0.40;;;15.90;72.10;;;;;;5016250;28;20045;-84
2024/02/06 10:08:28;;;;;;;1.42;0.40;;;15.90;72.00;;;;;;5018537;28;20448;-84
2024/02/06 10:10:54;;;;;;;0.52;0.50;;;15.80;72.10;;;;;;5007057;28;20041;-85
2024/02/06 10:13:23;;;;;;;1.52;0.57;;;15.80;72.10;;;;;;5003319;28;20068;-84
2024/02/06 10:15:50;;;;;;;1.08;0.70;;;15.90;71.90;;;;;;5018022;28;20076;-84
2024/02/06 10:18:16;;;;;;;0.60;0.60;;;15.90;72.10;;;;;;5003432;28;20498;-84
2024/02/06 10:20:45;;;;;;;0.63;0.60;;;15.80;72.10;;;;;;5001433;28;20117;-84
2024/02/06 10:23:15;;;;;;;0.80;0.60;;;15.80;71.80;;;;;;5012749;28;20117;-84
2024/02/06 10:25:42;;;;;;;0.93;0.50;;;15.80;71.90;;;;;;5006277;28;20046;-84
2024/02/06 10:28:07;;;;;;;0.82;0.47;;;15.80;71.70;;;;;;5001732;28;20420;-84
2024/02/06 10:30:36;;;;;;;0.68;0.50;;;15.80;71.90;;;;;;5001885;28;20084;-84
2024/02/06 10:33:12;;;;;;;0.60;0.60;;;15.80;71.80;;;;;;5016183;28;20048;-86
2024/02/06 10:35:38;;;;;;;0.82;0.57;;;15.80;71.90;;;;;;5000553;28;20041;-85
2024/02/06 10:38:09;;;;;;;0.43;0.43;;;15.80;72.10;;;;;;5002669;28;20543;-84
2024/02/06 10:40:35;;;;;;;0.63;0.40;;;15.90;71.90;;;;;;5005008;28;20100;-84
2024/02/06 10:43:00;;;;;;;0.70;0.40;;;15.90;71.80;;;;;;5019888;28;20504;-85
2024/02/06 10:45:26;;;;;;;0.80;0.50;;;15.90;71.80;;;;;;5019043;28;20037;-85
2024/02/06 10:47:58;;;;;;;2.25;0.73;;;15.90;72.00;;;;;;5001810;28;20072;-83
2024/02/06 10:50:26;;;;;;;1.63;0.60;;;15.90;71.50;;;;;;4997794;28;20061;-84
2024/02/06 10:52:52;;;;;;;1.48;0.50;;;15.90;71.50;;;;;;5004523;28;20050;-85
2024/02/06 10:55:17;;;;;;;0.68;0.68;;;16.00;71.50;;;;;;5001789;28;20046;-87
2024/02/06 10:57:45;;;;;;;0.93;0.70;;;16.00;71.30;;;;;;5014619;28;20555;-85
2024/02/06 11:00:12;;;;;;;0.65;0.52;;;16.00;71.20;;;;;;5020122;28;20300;-84
2024/02/06 11:02:41;;;;;;;0.80;0.50;;;16.10;71.10;;;;;;5002240;28;20119;-84
2024/02/06 11:05:11;;;;;;;0.55;0.40;;;16.00;71.30;;;;;;5004640;28;20042;-86
2024/02/06 11:08:21;;;;;;;0.60;0.60;;;16.00;71.30;;;;;;5002891;28;20299;-85
2024/02/06 11:10:51;;;;;;;0.70;0.68;;;16.00;71.30;;;;;;5001493;28;20042;-86
2024/02/06 11:13:22;;;;;;;0.75;0.30;;;16.00;71.30;;;;;;5017430;28;20133;-84
2024/02/06 11:15:47;;;;;;;42.65;17.58;;;16.00;71.30;;;;;;5014379;28;20419;-85
2024/02/06 11:18:13;;;;;;;50.60;23.90;;;16.00;71.30;;;;;;5013412;28;20037;-82
2024/02/06 11:20:40;;;;;;;21.42;12.10;;;16.10;71.40;;;;;;4999685;28;20045;-83
2024/02/06 11:23:08;;;;;;;26.48;15.77;;;16.20;71.30;;;;;;5017673;28;20085;-82
2024/02/06 11:25:35;;;;;;;24.77;14.48;;;16.30;71.70;;;;;;5002943;28;20072;-83
2024/02/06 11:28:03;;;;;;;19.35;10.05;;;16.30;72.00;;;;;;5018950;28;20069;-85
2024/02/06 11:30:30;;;;;;;15.00;7.45;;;16.30;71.20;;;;;;5000476;28;20057;-80
2024/02/06 11:33:04;;;;;;;12.43;6.20;;;16.30;70.70;;;;;;4999192;28;20045;-82
2024/02/06 11:35:30;;;;;;;11.05;5.35;;;16.40;70.40;;;;;;5015793;28;20049;-80
2024/02/06 11:37:56;;;;;;;8.32;5.80;;;16.30;71.50;;;;;;5016953;28;20042;-82
2024/02/06 11:40:26;;;;;;;11.13;5.55;;;16.20;73.00;;;;;;5019083;28;20049;-81
2024/02/06 11:43:02;;;;;;;6.03;4.90;;;16.20;72.90;;;;;;5002669;28;20053;-81
2024/02/06 11:45:28;;;;;;;4.88;4.40;;;16.10;73.00;;;;;;4646700;28;9999965;-81
2024/02/06 11:47:58;;;;;;;7.80;4.10;;;16.10;73.50;;;;;;4996831;28;20046;-82
2024/02/06 11:50:29;;;;;;;6.97;3.60;;;16.20;72.50;;;;;;4983440;28;20138;-81
2024/02/06 11:53:00;;;;;;;10.77;3.80;;;16.20;72.20;;;;;;4999527;28;20052;-80
2024/02/06 11:55:25;;;;;;;4.65;3.80;;;16.10;72.00;;;;;;4999909;28;20046;-80
2024/02/06 11:57:51;;;;;;;5.70;3.33;;;16.10;71.90;;;;;;5010869;28;20112;-81
2024/02/06 12:00:17;;;;;;;5.43;3.40;;;16.10;71.90;;;;;;5009065;28;20129;-82
2024/02/06 12:02:43;;;;;;;4.50;3.65;;;16.10;71.80;;;;;;4997950;28;20100;-81
2024/02/06 12:05:08;;;;;;;2.95;2.70;;;16.10;71.80;;;;;;5011911;28;20038;-81
2024/02/06 12:07:34;;;;;;;5.18;3.17;;;16.10;71.70;;;;;;4998894;28;20400;-80
2024/02/06 12:09:59;;;;;;;3.55;3.10;;;16.10;72.50;;;;;;4999102;28;20420;-80
2024/02/06 12:12:25;;;;;;;3.05;2.75;;;16.10;71.70;;;;;;4991696;28;20078;-80
2024/02/06 12:14:51;;;;;;;4.25;3.13;;;16.10;71.60;;;;;;4998077;28;20050;-80
2024/02/06 12:17:17;;;;;;;4.45;2.80;;;16.10;71.50;;;;;;4978076;28;20559;-80
2024/02/06 12:19:43;;;;;;;3.42;2.55;;;16.10;71.40;;;;;;4997448;28;20048;-80
2024/02/06 12:22:12;;;;;;;3.25;2.92;;;16.20;71.40;;;;;;5011164;28;20054;-80
2024/02/06 12:24:38;;;;;;;3.67;2.72;;;16.20;71.50;;;;;;5009954;28;20050;-80
2024/02/06 12:27:04;;;;;;;4.85;2.90;;;16.20;72.20;;;;;;4995810;28;20308;-81
2024/02/06 12:29:37;;;;;;;2.67;2.33;;;16.20;71.40;;;;;;5009231;28;20903;-80
2024/02/06 12:32:04;;;;;;;4.05;2.38;;;16.20;71.40;;;;;;5012815;28;20616;-81
2024/02/06 12:34:33;;;;;;;5.13;2.63;;;16.20;71.40;;;;;;4994801;28;20428;-81
2024/02/06 12:37:00;;;;;;;2.83;2.55;;;16.20;71.20;;;;;;5010810;28;20099;-81
2024/02/06 12:39:26;;;;;;;3.58;2.53;;;16.20;71.10;;;;;;5011207;28;20042;-81